Startpagina
METAR-TAF:

METAR-TAF

Vliegvelden :

Tsjita, Rusland

breedte: 52-05N, lengte: 113-29E, hoogte: 685 m

Actueel weer

Dit bericht is 26 minuten geleden gemaakt, om 01:30 UTC
Wind 16 kt uit het noordwesten
Temperatuur 6°C
Vochtigheid 65%
Druk 1010 hPa
Zicht 10 km of meer
Verspreide wolken op 3300 ft, Cumulonimbus.
lichte regenbuien

METAR: UIAA 290130Z 32008MPS 9999 -SHRA SCT033CB 06/00 Q1010 R29/CLRD70 NOSIG RMK QFE699/0932

Tijdstip: 10:56 (01:56 UTC)

Verwachting

Dit bericht is 44 minuten geleden gemaakt, om 01:12 UTC
Verwachting geldig van 29 om 01 UTC tot 29 om 24 UTC
Wind 19 kt uit het noordnoordwesten met uitschieters tot 29 kt
Zicht 10 km of meer
Gebroken wolken op 2000 ft, Cumulonimbus.
lichte regenbuien
Tijdelijke
van 29 om 01 UTC tot 29 om 12 UTC
Wind 29 kt uit het noorden met uitschieters tot 39 kt

TAF: UIAA 290112Z 2901/2924 34010G15MPS 9999 -SHRA BKN020CB TEMPO 2901/2912 35015G20MPS

Waarnemingen en weersverwachtingen van meer dan 4000 vliegvelden (METAR en TAF).

De beschikbare stations zijn de gele en rode punten op de kaart.

Ga met uw muis naar het station om de naam te zien.

Klik dan om waarnemingen en weersverwachtingen te zien.

kaart wijzigen: klik op de groene knoppen met een zwart kruis om in te zoomen, op de groene knop met een streepje om uit te zoomen of op de groene pijlen voor aangrenzende kaarten.


METAR-TAF: